createdAt,value
2018-07-24T00:01:53.275Z,17.40
2018-07-24T00:04:21.205Z,17.30
2018-07-24T00:06:49.121Z,17.30
2018-07-24T00:09:17.064Z,17.30
2018-07-24T00:11:45.044Z,17.20
2018-07-24T00:14:13.009Z,17.20
2018-07-24T00:16:40.993Z,16.90
2018-07-24T00:19:09.004Z,17.10
2018-07-24T00:21:36.930Z,17.00
2018-07-24T00:24:05.214Z,17.00
2018-07-24T00:26:33.179Z,17.00
2018-07-24T00:29:01.136Z,17.00
2018-07-24T00:31:29.074Z,16.90
2018-07-24T00:33:57.002Z,16.80
2018-07-24T00:36:24.957Z,16.80
2018-07-24T00:38:52.891Z,16.80
2018-07-24T00:41:20.828Z,16.80
2018-07-24T00:43:48.830Z,16.90
2018-07-24T00:46:17.012Z,16.90
2018-07-24T00:48:44.984Z,16.90
2018-07-24T00:51:13.003Z,16.90
2018-07-24T00:53:40.948Z,16.80
2018-07-24T00:56:08.895Z,16.80
2018-07-24T00:58:36.827Z,16.70
2018-07-24T01:01:04.813Z,16.60
2018-07-24T01:03:32.876Z,16.50
2018-07-24T01:06:00.936Z,16.50
2018-07-24T01:08:28.955Z,16.30
2018-07-24T01:10:56.908Z,16.20
2018-07-24T01:13:24.982Z,16.10
2018-07-24T01:15:52.917Z,16.10
2018-07-24T01:18:20.849Z,16.10
2018-07-24T01:20:48.798Z,16.00
2018-07-24T01:23:16.731Z,16.00
2018-07-24T01:25:44.741Z,16.00
2018-07-24T01:28:12.696Z,16.00
2018-07-24T01:30:40.761Z,15.90
2018-07-24T01:33:08.735Z,16.00
2018-07-24T01:35:36.696Z,16.20
2018-07-24T01:38:04.741Z,16.20
2018-07-24T01:40:32.700Z,16.10
2018-07-24T01:43:00.667Z,16.10
2018-07-24T01:45:28.616Z,16.10
2018-07-24T01:47:56.557Z,16.10
2018-07-24T01:50:24.847Z,16.10
2018-07-24T01:52:52.865Z,15.90
2018-07-24T01:55:20.862Z,15.90
2018-07-24T01:57:48.991Z,15.90
2018-07-24T02:00:17.816Z,15.90
2018-07-24T02:02:45.899Z,16.00
2018-07-24T02:05:13.891Z,15.90
2018-07-24T02:07:42.264Z,15.80
2018-07-24T02:10:10.227Z,15.80
2018-07-24T02:12:38.264Z,15.70
2018-07-24T02:15:06.714Z,15.70
2018-07-24T02:17:34.707Z,15.70
2018-07-24T02:20:02.914Z,15.80
2018-07-24T02:22:30.875Z,15.60
2018-07-24T02:24:58.947Z,15.70
2018-07-24T02:27:26.888Z,15.70
2018-07-24T02:29:54.856Z,15.40
2018-07-24T02:32:22.758Z,15.60
2018-07-24T02:34:50.734Z,15.70
2018-07-24T02:37:18.665Z,15.80
2018-07-24T02:39:46.670Z,15.80
2018-07-24T02:42:14.608Z,15.60
2018-07-24T02:44:42.585Z,15.60
2018-07-24T02:47:10.498Z,15.70
2018-07-24T02:49:38.482Z,15.50
2018-07-24T02:52:06.425Z,15.70
2018-07-24T02:54:34.374Z,15.60
2018-07-24T02:57:02.340Z,15.60
2018-07-24T02:59:30.315Z,15.60
2018-07-24T03:01:58.295Z,15.60
2018-07-24T03:04:26.275Z,15.60
2018-07-24T03:06:54.222Z,15.60
2018-07-24T03:09:22.573Z,15.50
2018-07-24T03:11:50.506Z,15.40
2018-07-24T03:14:18.468Z,15.50
2018-07-24T03:16:46.383Z,15.40
2018-07-24T03:19:14.399Z,15.50
2018-07-24T03:21:42.324Z,15.60
2018-07-24T03:24:10.319Z,15.50
2018-07-24T03:26:38.276Z,15.40
2018-07-24T03:29:06.256Z,15.30
2018-07-24T03:31:34.183Z,15.40
2018-07-24T03:34:02.124Z,15.40
2018-07-24T03:36:30.054Z,15.20
2018-07-24T03:38:58.370Z,15.20
2018-07-24T03:41:26.518Z,15.20
2018-07-24T03:43:54.469Z,15.20
2018-07-24T03:46:22.388Z,15.20
2018-07-24T03:48:50.351Z,15.20
2018-07-24T03:51:18.293Z,15.20
2018-07-24T03:53:46.242Z,15.20
2018-07-24T03:56:14.204Z,15.10
2018-07-24T03:58:42.146Z,15.20
2018-07-24T04:01:10.096Z,15.20
2018-07-24T04:03:39.546Z,15.30
2018-07-24T04:06:09.307Z,15.20
2018-07-24T04:08:37.466Z,15.20
2018-07-24T04:11:05.513Z,15.20
2018-07-24T04:13:33.492Z,15.20
2018-07-24T04:16:01.593Z,15.20
2018-07-24T04:18:34.520Z,15.10
2018-07-24T04:21:02.456Z,15.10
2018-07-24T04:23:31.466Z,15.10
2018-07-24T04:26:01.079Z,15.10
2018-07-24T04:28:31.051Z,15.20
2018-07-24T04:30:59.258Z,15.20
2018-07-24T04:33:28.075Z,15.30
2018-07-24T04:35:56.899Z,15.30
2018-07-24T04:38:24.856Z,15.30
2018-07-24T04:40:53.156Z,15.30
2018-07-24T04:43:21.513Z,15.30
2018-07-24T04:45:51.316Z,15.50
2018-07-24T04:48:19.255Z,15.40
2018-07-24T04:50:50.036Z,15.50
2018-07-24T04:53:19.294Z,15.50
2018-07-24T04:55:48.212Z,15.50
2018-07-24T04:58:17.671Z,15.50
2018-07-24T05:00:45.917Z,15.60
2018-07-24T05:03:14.706Z,15.70
2018-07-24T05:05:43.624Z,15.90
2018-07-24T05:08:12.345Z,15.90
2018-07-24T05:10:40.430Z,15.90
2018-07-24T05:13:09.543Z,16.10
2018-07-24T05:15:42.025Z,16.00
2018-07-24T05:18:11.515Z,16.10
2018-07-24T05:20:41.400Z,16.10
2018-07-24T05:23:11.131Z,16.10
2018-07-24T05:25:41.279Z,16.10
2018-07-24T05:28:11.103Z,16.30
2018-07-24T05:30:39.119Z,16.40
2018-07-24T05:33:07.076Z,16.60
2018-07-24T05:35:34.989Z,16.50
2018-07-24T05:38:03.083Z,16.60
2018-07-24T05:40:31.065Z,16.80
2018-07-24T05:42:59.045Z,16.80
2018-07-24T05:45:27.005Z,17.00
2018-07-24T05:47:54.954Z,17.00
2018-07-24T05:50:22.913Z,17.10
2018-07-24T05:52:54.532Z,17.30
2018-07-24T05:55:22.512Z,17.30
2018-07-24T05:57:50.481Z,17.30
2018-07-24T06:00:18.476Z,17.60
2018-07-24T06:02:46.466Z,17.50
2018-07-24T06:05:14.485Z,17.80
2018-07-24T06:07:42.578Z,17.90
2018-07-24T06:10:10.543Z,18.10
2018-07-24T06:12:38.557Z,18.20
2018-07-24T06:15:06.741Z,18.30
2018-07-24T06:17:34.751Z,18.20
2018-07-24T06:20:02.716Z,18.40
2018-07-24T06:22:30.696Z,18.40
2018-07-24T06:24:58.715Z,18.40
2018-07-24T06:27:26.671Z,18.60
2018-07-24T06:29:54.642Z,18.80
2018-07-24T06:32:22.629Z,18.80
2018-07-24T06:34:50.549Z,18.90
2018-07-24T06:37:18.512Z,19.00
2018-07-24T06:39:46.531Z,18.90
2018-07-24T06:42:14.413Z,18.80
2018-07-24T06:44:42.492Z,19.10
2018-07-24T06:47:10.394Z,19.30
2018-07-24T06:49:38.327Z,19.50
2018-07-24T06:52:06.724Z,19.40
2018-07-24T06:54:34.788Z,19.60
2018-07-24T06:57:02.879Z,19.60
2018-07-24T06:59:30.935Z,19.40
2018-07-24T07:01:59.067Z,19.60
2018-07-24T07:04:27.084Z,19.70
2018-07-24T07:06:55.170Z,19.90
2018-07-24T07:09:23.102Z,19.90
2018-07-24T07:11:51.073Z,20.20
2018-07-24T07:14:19.075Z,20.10
2018-07-24T07:16:47.293Z,20.30
2018-07-24T07:19:15.325Z,20.50
2018-07-24T07:21:43.324Z,20.50
2018-07-24T07:24:11.339Z,20.40
2018-07-24T07:26:39.341Z,20.60
2018-07-24T07:29:07.483Z,20.80
2018-07-24T07:31:35.345Z,20.80
2018-07-24T07:34:03.412Z,20.60
2018-07-24T07:36:31.458Z,20.90
2018-07-24T07:38:59.463Z,21.00
2018-07-24T07:41:27.443Z,21.00
2018-07-24T07:43:55.533Z,21.00
2018-07-24T07:46:23.470Z,21.10
2018-07-24T07:48:51.460Z,21.40
2018-07-24T07:51:19.494Z,21.20
2018-07-24T07:53:47.520Z,21.10
2018-07-24T07:56:15.488Z,21.60
2018-07-24T07:58:43.597Z,21.70
2018-07-24T08:01:11.509Z,21.70
2018-07-24T08:03:39.467Z,21.90
2018-07-24T08:06:07.433Z,21.90
2018-07-24T08:08:35.494Z,21.90
2018-07-24T08:11:03.495Z,22.20
2018-07-24T08:13:31.541Z,22.10
2018-07-24T08:15:59.493Z,22.10
2018-07-24T08:18:27.495Z,22.20
2018-07-24T08:20:55.479Z,22.30
2018-07-24T08:23:23.417Z,22.50
2018-07-24T08:25:51.354Z,22.20
2018-07-24T08:28:19.398Z,22.40
2018-07-24T08:30:47.348Z,22.50
2018-07-24T08:33:15.313Z,22.70
2018-07-24T08:35:43.321Z,22.70
2018-07-24T08:38:11.311Z,23.10
2018-07-24T08:40:39.256Z,23.10
2018-07-24T08:43:07.229Z,23.20
2018-07-24T08:45:35.187Z,23.30
2018-07-24T08:48:03.118Z,23.30
2018-07-24T08:50:31.099Z,23.30
2018-07-24T08:52:59.213Z,23.20
2018-07-24T08:55:27.296Z,23.20
2018-07-24T08:57:55.064Z,23.50
2018-07-24T09:00:23.026Z,23.30
2018-07-24T09:02:50.987Z,23.00
2018-07-24T09:05:18.967Z,23.10
2018-07-24T09:07:46.891Z,23.00
2018-07-24T09:10:14.839Z,22.70
2018-07-24T09:12:42.820Z,23.00
2018-07-24T09:15:10.766Z,23.00
2018-07-24T09:17:38.812Z,23.10
2018-07-24T09:20:06.945Z,23.00
2018-07-24T09:22:34.958Z,23.40
2018-07-24T09:25:02.941Z,23.30
2018-07-24T09:27:31.106Z,23.80
2018-07-24T09:29:59.125Z,23.70
2018-07-24T09:32:27.117Z,23.50
2018-07-24T09:34:55.080Z,23.20
2018-07-24T09:37:23.067Z,23.90
2018-07-24T09:39:51.013Z,24.00
2018-07-24T09:42:19.008Z,23.80
2018-07-24T09:44:46.982Z,23.90
2018-07-24T09:47:14.913Z,24.10
2018-07-24T09:49:42.886Z,23.70
2018-07-24T09:52:10.854Z,24.30
2018-07-24T09:54:38.795Z,23.90
2018-07-24T09:57:06.822Z,23.60
2018-07-24T09:59:34.785Z,23.10
2018-07-24T10:02:02.722Z,23.50
2018-07-24T10:04:30.759Z,23.60
2018-07-24T10:06:58.733Z,23.70
2018-07-24T10:09:26.734Z,23.20
2018-07-24T10:11:54.715Z,23.10
2018-07-24T10:14:22.659Z,23.50
2018-07-24T10:16:50.669Z,24.00
2018-07-24T10:19:18.589Z,24.00
2018-07-24T10:21:46.538Z,24.00
2018-07-24T10:24:14.516Z,24.20
2018-07-24T10:26:42.465Z,24.60
2018-07-24T10:29:10.444Z,24.20
2018-07-24T10:31:38.391Z,24.90
2018-07-24T10:34:06.452Z,24.90
2018-07-24T10:36:34.448Z,24.60
2018-07-24T10:39:02.421Z,24.10
2018-07-24T10:41:30.415Z,23.80
2018-07-24T10:43:58.365Z,24.20
2018-07-24T10:46:26.327Z,24.50
2018-07-24T10:48:54.323Z,24.60
2018-07-24T10:51:22.292Z,24.40
2018-07-24T10:53:50.228Z,24.30
2018-07-24T10:56:18.209Z,24.10
2018-07-24T10:58:46.185Z,24.40
2018-07-24T11:01:14.128Z,24.70
2018-07-24T11:03:42.137Z,25.30
2018-07-24T11:06:10.078Z,25.40
2018-07-24T11:08:38.061Z,24.90
2018-07-24T11:11:06.347Z,24.90
2018-07-24T11:13:34.097Z,25.40
2018-07-24T11:16:02.049Z,25.40
2018-07-24T11:18:30.044Z,25.30
2018-07-24T11:20:58.022Z,25.30
2018-07-24T11:23:25.990Z,25.80
2018-07-24T11:25:54.015Z,26.10
2018-07-24T11:28:22.050Z,25.30
2018-07-24T11:30:49.916Z,25.60
2018-07-24T11:33:17.966Z,25.50
2018-07-24T11:35:46.093Z,26.30
2018-07-24T11:38:13.838Z,26.70
2018-07-24T11:40:41.851Z,26.00
2018-07-24T11:43:09.804Z,26.80
2018-07-24T11:45:37.741Z,26.30
2018-07-24T11:48:05.759Z,27.20
2018-07-24T11:50:33.726Z,26.70
2018-07-24T11:53:01.651Z,26.90
2018-07-24T11:55:29.629Z,27.00
2018-07-24T11:57:57.638Z,26.80
2018-07-24T12:00:25.712Z,27.50
2018-07-24T12:02:53.710Z,27.20
2018-07-24T12:05:21.690Z,27.70
2018-07-24T12:07:49.658Z,28.00
2018-07-24T12:10:17.646Z,28.20
2018-07-24T12:12:45.594Z,27.60
2018-07-24T12:15:13.651Z,27.90
2018-07-24T12:17:41.600Z,28.20
2018-07-24T12:20:09.520Z,28.70
2018-07-24T12:22:37.704Z,28.40
2018-07-24T12:25:05.667Z,29.00
2018-07-24T12:27:33.623Z,28.60
2018-07-24T12:30:01.563Z,28.80
2018-07-24T12:32:29.532Z,27.90
2018-07-24T12:34:57.508Z,28.60
2018-07-24T12:37:25.468Z,28.30
2018-07-24T12:39:53.445Z,28.70
2018-07-24T12:42:21.390Z,29.00
2018-07-24T12:44:49.323Z,28.70
2018-07-24T12:47:17.300Z,28.70
2018-07-24T12:49:45.218Z,29.30
2018-07-24T12:52:13.216Z,29.10
2018-07-24T12:54:41.221Z,30.10
2018-07-24T12:57:09.173Z,30.20
2018-07-24T12:59:37.091Z,29.50
2018-07-24T13:02:05.191Z,29.30
2018-07-24T13:04:33.110Z,29.00
2018-07-24T13:07:01.029Z,29.40
2018-07-24T13:09:29.081Z,29.60
2018-07-24T13:11:57.081Z,29.30
2018-07-24T13:14:25.076Z,30.30
2018-07-24T13:16:53.043Z,29.90
2018-07-24T13:19:20.977Z,29.50
2018-07-24T13:21:48.946Z,30.30
2018-07-24T13:24:16.959Z,30.40
2018-07-24T13:27:02.164Z,30.10
2018-07-24T13:29:48.603Z,31.30
2018-07-24T13:32:34.084Z,30.70
2018-07-24T13:35:02.796Z,30.30
2018-07-24T13:37:30.743Z,31.00
2018-07-24T13:39:58.693Z,31.10
2018-07-24T13:42:26.654Z,31.50
2018-07-24T13:44:54.631Z,30.60
2018-07-24T13:47:22.596Z,31.20
2018-07-24T13:49:50.556Z,31.10
2018-07-24T13:52:18.480Z,32.10
2018-07-24T13:54:46.397Z,31.10
2018-07-24T13:57:14.372Z,31.20
2018-07-24T13:59:42.338Z,31.80
2018-07-24T14:02:10.298Z,32.30
2018-07-24T14:04:38.269Z,32.10
2018-07-24T14:07:06.264Z,32.10
2018-07-24T14:09:34.202Z,33.10
2018-07-24T14:12:02.178Z,32.10
2018-07-24T14:14:31.728Z,31.10
2018-07-24T14:17:01.557Z,31.80
2018-07-24T14:19:29.574Z,32.30
2018-07-24T14:21:57.588Z,31.90
2018-07-24T14:24:25.705Z,32.40
2018-07-24T14:26:53.688Z,32.70
2018-07-24T14:29:21.612Z,32.30
2018-07-24T14:31:49.549Z,32.60
2018-07-24T14:34:17.521Z,33.70
2018-07-24T14:36:45.470Z,33.90
2018-07-24T14:39:13.464Z,37.30
2018-07-24T14:41:41.491Z,37.20
2018-07-24T14:44:09.493Z,37.30
2018-07-24T14:46:37.458Z,37.80
2018-07-24T14:49:05.427Z,38.10
2018-07-24T14:51:33.434Z,37.50
2018-07-24T14:54:01.636Z,38.50
2018-07-24T14:56:33.179Z,38.40
2018-07-24T14:59:05.222Z,38.60
2018-07-24T15:01:34.100Z,36.70
2018-07-24T15:04:03.535Z,37.20
2018-07-24T15:06:49.528Z,35.80
2018-07-24T15:10:15.130Z,38.40
2018-07-24T15:12:44.013Z,39.70
2018-07-24T15:15:12.212Z,37.00
2018-07-24T15:17:40.652Z,38.50
2018-07-24T15:20:09.121Z,37.60
2018-07-24T15:22:36.994Z,38.30
2018-07-24T15:25:05.149Z,38.50
2018-07-24T15:27:33.266Z,40.20
2018-07-24T15:30:01.561Z,39.20
2018-07-24T15:32:29.565Z,35.20
2018-07-24T15:34:57.643Z,33.90
2018-07-24T15:37:25.517Z,33.50
2018-07-24T15:39:53.504Z,32.80
2018-07-24T15:42:21.460Z,33.30
2018-07-24T15:44:49.411Z,33.10
2018-07-24T15:47:17.408Z,32.40
2018-07-24T15:49:45.412Z,33.10
2018-07-24T15:52:13.456Z,33.80
2018-07-24T15:54:41.346Z,33.70
2018-07-24T15:57:09.355Z,34.60
2018-07-24T15:59:37.302Z,33.80
2018-07-24T16:02:05.295Z,33.70
2018-07-24T16:04:33.240Z,33.20
2018-07-24T16:07:01.210Z,33.40
2018-07-24T16:09:29.178Z,33.70
2018-07-24T16:11:57.117Z,32.80
2018-07-24T16:14:25.067Z,32.50
2018-07-24T16:16:53.040Z,33.10
2018-07-24T16:19:20.967Z,33.80
2018-07-24T16:21:48.931Z,33.00
2018-07-24T16:24:16.915Z,31.80
2018-07-24T16:26:44.933Z,33.50
2018-07-24T16:29:12.887Z,33.60
2018-07-24T16:31:40.856Z,33.60
2018-07-24T16:34:08.787Z,33.40
2018-07-24T16:36:36.727Z,33.80
2018-07-24T16:39:08.212Z,33.40
2018-07-24T16:41:36.157Z,31.90
2018-07-24T16:44:04.201Z,33.10
2018-07-24T16:46:32.068Z,33.60
2018-07-24T16:49:00.044Z,34.00
2018-07-24T16:51:27.968Z,33.70
2018-07-24T16:53:55.937Z,32.60
2018-07-24T16:56:23.914Z,33.10
2018-07-24T16:58:52.809Z,32.80
2018-07-24T17:01:20.817Z,34.40
2018-07-24T17:03:48.765Z,34.10
2018-07-24T17:06:16.728Z,33.60
2018-07-24T17:08:44.680Z,33.40
2018-07-24T17:11:12.634Z,33.40
2018-07-24T17:13:40.620Z,33.90
2018-07-24T17:16:09.422Z,34.00
2018-07-24T17:18:37.439Z,34.60
2018-07-24T17:21:05.448Z,33.10
2018-07-24T17:23:33.408Z,35.20
2018-07-24T17:26:01.368Z,34.10
2018-07-24T17:28:29.365Z,33.90
2018-07-24T17:30:57.332Z,34.40
2018-07-24T17:33:25.253Z,33.80
2018-07-24T17:35:53.252Z,34.90
2018-07-24T17:38:21.213Z,34.60
2018-07-24T17:40:49.236Z,35.10
2018-07-24T17:43:17.142Z,34.90
2018-07-24T17:45:45.205Z,34.20
2018-07-24T17:48:13.275Z,34.20
2018-07-24T17:50:41.135Z,34.10
2018-07-24T17:53:09.114Z,33.70
2018-07-24T17:55:37.064Z,34.10
2018-07-24T17:58:05.011Z,33.90
2018-07-24T18:00:32.994Z,33.70
2018-07-24T18:03:00.956Z,33.70
2018-07-24T18:05:28.950Z,33.40
2018-07-24T18:07:56.924Z,33.60
2018-07-24T18:10:24.866Z,33.60
2018-07-24T18:12:52.852Z,33.10
2018-07-24T18:15:20.946Z,32.70
2018-07-24T18:17:48.940Z,32.90
2018-07-24T18:20:16.864Z,32.70
2018-07-24T18:22:44.882Z,32.20
2018-07-24T18:25:12.834Z,32.20
2018-07-24T18:27:40.867Z,31.70
2018-07-24T18:30:08.854Z,31.50
2018-07-24T18:32:36.756Z,31.70
2018-07-24T18:35:04.680Z,31.20
2018-07-24T18:37:32.635Z,30.70
2018-07-24T18:40:00.584Z,30.60
2018-07-24T18:42:28.513Z,29.80
2018-07-24T18:44:56.497Z,29.80
2018-07-24T18:47:24.506Z,29.90
2018-07-24T18:49:52.488Z,29.60
2018-07-24T18:52:20.524Z,28.70
2018-07-24T18:54:48.581Z,28.90
2018-07-24T18:57:16.517Z,28.50
2018-07-24T18:59:44.459Z,28.30
2018-07-24T19:02:12.375Z,28.20
2018-07-24T19:04:40.368Z,27.80
2018-07-24T19:07:08.351Z,27.90
2018-07-24T19:09:36.348Z,27.90
2018-07-24T19:12:04.280Z,27.70
2018-07-24T19:14:32.263Z,27.60
2018-07-24T19:17:00.216Z,27.60
2018-07-24T19:19:28.175Z,27.10
2018-07-24T19:21:56.154Z,26.90
2018-07-24T19:24:24.110Z,27.00
2018-07-24T19:26:52.053Z,26.30
2018-07-24T19:29:20.007Z,26.30
2018-07-24T19:31:47.976Z,26.20
2018-07-24T19:34:16.099Z,26.00
2018-07-24T19:36:44.077Z,25.80
2018-07-24T19:39:12.107Z,25.80
2018-07-24T19:41:40.155Z,25.70
2018-07-24T19:44:08.943Z,24.80
2018-07-24T19:46:36.967Z,25.30
2018-07-24T19:49:05.443Z,25.50
2018-07-24T19:51:33.423Z,24.90
2018-07-24T19:54:02.192Z,24.80
2018-07-24T19:56:30.689Z,25.00
2018-07-24T19:58:59.169Z,24.60
2018-07-24T20:01:27.236Z,24.70
2018-07-24T20:03:55.199Z,24.90
2018-07-24T20:06:23.167Z,24.60
2018-07-24T20:09:20.995Z,24.80
2018-07-24T20:12:04.513Z,24.70
2018-07-24T20:14:38.365Z,24.30
2018-07-24T20:17:13.030Z,24.50
2018-07-24T20:19:43.418Z,24.40
2018-07-24T20:22:13.225Z,24.30
2018-07-24T20:24:43.061Z,24.30
2018-07-24T20:27:18.551Z,24.40
2018-07-24T20:29:48.308Z,24.40
2018-07-24T20:32:17.926Z,24.40
2018-07-24T20:34:49.522Z,24.40
2018-07-24T20:37:39.956Z,23.80
2018-07-24T20:40:10.684Z,23.70
2018-07-24T20:42:41.986Z,23.70
2018-07-24T20:45:11.740Z,23.80
2018-07-24T20:47:41.199Z,24.00
2018-07-24T20:50:11.365Z,23.50
2018-07-24T20:52:41.362Z,23.60
2018-07-24T20:55:10.924Z,23.80
2018-07-24T20:57:41.332Z,23.70
2018-07-24T21:00:11.424Z,23.70
2018-07-24T21:02:41.509Z,23.40
2018-07-24T21:05:11.936Z,23.10
2018-07-24T21:08:01.422Z,23.40
2018-07-24T21:10:31.675Z,23.30
2018-07-24T21:13:01.555Z,23.40
2018-07-24T21:15:45.438Z,23.50
2018-07-24T21:18:16.870Z,23.00
2018-07-24T21:20:46.814Z,23.00
2018-07-24T21:23:23.642Z,23.10
2018-07-24T21:25:56.668Z,23.00
2018-07-24T21:28:26.380Z,22.90
2018-07-24T21:30:57.456Z,22.80
2018-07-24T21:33:27.645Z,22.70
2018-07-24T21:35:57.006Z,22.70
2018-07-24T21:38:27.860Z,22.50
2018-07-24T21:40:57.929Z,22.80
2018-07-24T21:43:31.776Z,22.70
2018-07-24T21:46:05.494Z,22.50
2018-07-24T21:48:38.208Z,22.70
2018-07-24T21:51:11.575Z,22.60
2018-07-24T21:53:44.658Z,22.30
2018-07-24T21:56:15.184Z,22.20
2018-07-24T21:58:45.365Z,22.30
2018-07-24T22:01:14.878Z,22.10
2018-07-24T22:03:46.383Z,22.60
2018-07-24T22:06:15.984Z,22.30
2018-07-24T22:08:44.471Z,22.20
2018-07-24T22:11:14.556Z,22.00
2018-07-24T22:13:42.571Z,22.00
2018-07-24T22:16:10.567Z,22.00
2018-07-24T22:18:38.801Z,22.00
2018-07-24T22:21:07.029Z,21.90
2018-07-24T22:23:42.551Z,21.80
2018-07-24T22:26:10.555Z,21.70
2018-07-24T22:28:38.527Z,21.70
2018-07-24T22:31:06.577Z,21.60
2018-07-24T22:33:34.555Z,21.60
2018-07-24T22:36:02.604Z,21.70
2018-07-24T22:38:30.577Z,21.60
2018-07-24T22:40:58.547Z,21.40
2018-07-24T22:43:26.538Z,21.40
2018-07-24T22:45:54.602Z,21.30
2018-07-24T22:48:22.591Z,21.20
2018-07-24T22:50:50.524Z,21.10
2018-07-24T22:53:18.562Z,21.10
2018-07-24T22:55:46.500Z,21.00
2018-07-24T22:58:14.455Z,20.80
2018-07-24T23:00:42.440Z,20.90
2018-07-24T23:03:10.402Z,20.90
2018-07-24T23:05:38.357Z,20.80
2018-07-24T23:08:06.329Z,20.70
2018-07-24T23:10:34.330Z,20.70
2018-07-24T23:13:03.865Z,20.70
2018-07-24T23:15:31.893Z,20.60
2018-07-24T23:17:59.825Z,20.50
2018-07-24T23:20:28.201Z,20.30
2018-07-24T23:22:56.170Z,20.20
2018-07-24T23:25:24.943Z,20.40
2018-07-24T23:27:52.996Z,20.20
2018-07-24T23:30:21.060Z,20.30
2018-07-24T23:32:49.053Z,20.20
2018-07-24T23:35:16.998Z,20.10
2018-07-24T23:37:45.065Z,19.90
2018-07-24T23:40:13.167Z,20.00
2018-07-24T23:42:41.153Z,19.80
2018-07-24T23:45:09.142Z,19.90
2018-07-24T23:47:37.078Z,19.90
2018-07-24T23:50:05.097Z,19.80
2018-07-24T23:52:33.117Z,20.00
2018-07-24T23:55:01.099Z,19.70
2018-07-24T23:57:29.095Z,19.70
2018-07-24T23:59:57.098Z,19.70
